sensor_id;sensor_type;location;lat;lon;timestamp;temperature;humidity
52267;DHT22;38223;50.940;4.034;2023-01-08T00:02:32;11.60;99.90
52267;DHT22;38223;50.940;4.034;2023-01-08T00:05:07;11.50;99.90
52267;DHT22;38223;50.940;4.034;2023-01-08T00:07:38;11.40;99.90
52267;DHT22;38223;50.940;4.034;2023-01-08T00:10:09;11.30;99.90
52267;DHT22;38223;50.940;4.034;2023-01-08T00:12:44;11.30;99.90
52267;DHT22;38223;50.940;4.034;2023-01-08T00:15:15;11.20;99.90
52267;DHT22;38223;50.940;4.034;2023-01-08T00:17:45;11.20;99.90
52267;DHT22;38223;50.940;4.034;2023-01-08T00:20:17;11.10;99.90
52267;DHT22;38223;50.940;4.034;2023-01-08T00:22:52;11.10;99.90
52267;DHT22;38223;50.940;4.034;2023-01-08T00:25:22;10.90;99.90
52267;DHT22;38223;50.940;4.034;2023-01-08T00:27:57;11.00;99.90
52267;DHT22;38223;50.940;4.034;2023-01-08T00:30:26;11.00;99.90
52267;DHT22;38223;50.940;4.034;2023-01-08T00:32:54;10.90;99.90
52267;DHT22;38223;50.940;4.034;2023-01-08T00:35:30;10.90;99.90
52267;DHT22;38223;50.940;4.034;2023-01-08T00:37:59;10.90;99.90
52267;DHT22;38223;50.940;4.034;2023-01-08T00:40:35;10.90;99.90
52267;DHT22;38223;50.940;4.034;2023-01-08T00:43:07;10.70;99.90
52267;DHT22;38223;50.940;4.034;2023-01-08T00:45:44;10.70;99.90
52267;DHT22;38223;50.940;4.034;2023-01-08T00:48:14;10.90;99.90
52267;DHT22;38223;50.940;4.034;2023-01-08T00:50:49;10.90;99.90
52267;DHT22;38223;50.940;4.034;2023-01-08T00:53:20;10.80;99.90
52267;DHT22;38223;50.940;4.034;2023-01-08T00:55:49;10.80;99.90
52267;DHT22;38223;50.940;4.034;2023-01-08T00:58:17;10.90;99.90
52267;DHT22;38223;50.940;4.034;2023-01-08T01:00:45;10.90;99.90
52267;DHT22;38223;50.940;4.034;2023-01-08T01:03:13;11.00;99.90
52267;DHT22;38223;50.940;4.034;2023-01-08T01:05:47;10.90;99.90
52267;DHT22;38223;50.940;4.034;2023-01-08T01:08:20;10.80;99.90
52267;DHT22;38223;50.940;4.034;2023-01-08T01:10:52;10.70;99.90
52267;DHT22;38223;50.940;4.034;2023-01-08T01:13:23;10.90;99.90
52267;DHT22;38223;50.940;4.034;2023-01-08T01:16:00;10.90;99.90
52267;DHT22;38223;50.940;4.034;2023-01-08T01:18:33;10.90;99.90
52267;DHT22;38223;50.940;4.034;2023-01-08T01:21:08;10.90;99.90
52267;DHT22;38223;50.940;4.034;2023-01-08T01:23:35;10.90;99.90
52267;DHT22;38223;50.940;4.034;2023-01-08T01:26:12;10.90;99.90
52267;DHT22;38223;50.940;4.034;2023-01-08T01:28:37;10.80;99.90
52267;DHT22;38223;50.940;4.034;2023-01-08T01:31:14;10.80;99.90
52267;DHT22;38223;50.940;4.034;2023-01-08T01:33:51;10.70;99.90
52267;DHT22;38223;50.940;4.034;2023-01-08T01:36:24;10.60;99.90
52267;DHT22;38223;50.940;4.034;2023-01-08T01:38:57;10.50;99.90
52267;DHT22;38223;50.940;4.034;2023-01-08T01:41:41;10.50;99.90
52267;DHT22;38223;50.940;4.034;2023-01-08T01:44:34;10.50;99.90
52267;DHT22;38223;50.940;4.034;2023-01-08T01:47:05;10.60;99.90
52267;DHT22;38223;50.940;4.034;2023-01-08T01:49:39;10.60;99.90
52267;DHT22;38223;50.940;4.034;2023-01-08T01:52:13;10.70;99.90
52267;DHT22;38223;50.940;4.034;2023-01-08T01:54:49;10.70;99.90
52267;DHT22;38223;50.940;4.034;2023-01-08T01:57:27;10.70;99.90
52267;DHT22;38223;50.940;4.034;2023-01-08T01:59:58;10.70;99.90
52267;DHT22;38223;50.940;4.034;2023-01-08T02:02:31;10.80;99.90
52267;DHT22;38223;50.940;4.034;2023-01-08T02:05:05;10.70;99.90
52267;DHT22;38223;50.940;4.034;2023-01-08T02:08:01;10.90;99.90
52267;DHT22;38223;50.940;4.034;2023-01-08T02:10:47;10.90;99.90
52267;DHT22;38223;50.940;4.034;2023-01-08T02:13:20;10.90;99.90
52267;DHT22;38223;50.940;4.034;2023-01-08T02:16:00;11.00;99.90
52267;DHT22;38223;50.940;4.034;2023-01-08T02:18:54;11.00;99.90
52267;DHT22;38223;50.940;4.034;2023-01-08T02:21:14;11.00;99.90
52267;DHT22;38223;50.940;4.034;2023-01-08T02:24:00;11.00;99.90
52267;DHT22;38223;50.940;4.034;2023-01-08T02:26:35;11.20;99.90
52267;DHT22;38223;50.940;4.034;2023-01-08T02:29:10;11.20;99.90
52267;DHT22;38223;50.940;4.034;2023-01-08T02:31:46;11.20;99.90
52267;DHT22;38223;50.940;4.034;2023-01-08T02:34:17;11.20;99.90
52267;DHT22;38223;50.940;4.034;2023-01-08T02:36:50;11.20;99.90
52267;DHT22;38223;50.940;4.034;2023-01-08T02:40:03;11.10;99.90
52267;DHT22;38223;50.940;4.034;2023-01-08T02:42:50;11.10;99.90
52267;DHT22;38223;50.940;4.034;2023-01-08T02:45:37;11.10;99.90
52267;DHT22;38223;50.940;4.034;2023-01-08T02:48:25;10.90;99.90
52267;DHT22;38223;50.940;4.034;2023-01-08T02:50:59;11.00;99.90
52267;DHT22;38223;50.940;4.034;2023-01-08T02:53:35;11.00;99.90
52267;DHT22;38223;50.940;4.034;2023-01-08T02:56:08;10.90;99.90
52267;DHT22;38223;50.940;4.034;2023-01-08T02:58:42;10.80;99.90
52267;DHT22;38223;50.940;4.034;2023-01-08T03:01:15;10.90;99.90
52267;DHT22;38223;50.940;4.034;2023-01-08T03:03:50;10.90;99.90
52267;DHT22;38223;50.940;4.034;2023-01-08T03:06:21;10.90;99.90
52267;DHT22;38223;50.940;4.034;2023-01-08T03:08:55;10.90;99.90
52267;DHT22;38223;50.940;4.034;2023-01-08T03:11:30;10.90;99.90
52267;DHT22;38223;50.940;4.034;2023-01-08T03:14:08;10.70;99.90
52267;DHT22;38223;50.940;4.034;2023-01-08T03:16:41;10.60;99.90
52267;DHT22;38223;50.940;4.034;2023-01-08T03:19:20;10.60;99.90
52267;DHT22;38223;50.940;4.034;2023-01-08T03:21:50;10.60;99.90
52267;DHT22;38223;50.940;4.034;2023-01-08T03:24:26;10.60;99.90
52267;DHT22;38223;50.940;4.034;2023-01-08T03:26:59;10.60;99.90
52267;DHT22;38223;50.940;4.034;2023-01-08T03:29:33;10.60;99.90
52267;DHT22;38223;50.940;4.034;2023-01-08T03:32:12;10.70;99.90
52267;DHT22;38223;50.940;4.034;2023-01-08T03:34:45;10.50;99.90
52267;DHT22;38223;50.940;4.034;2023-01-08T03:37:19;10.60;99.90
52267;DHT22;38223;50.940;4.034;2023-01-08T03:40:05;10.60;99.90
52267;DHT22;38223;50.940;4.034;2023-01-08T03:42:36;10.60;99.90
52267;DHT22;38223;50.940;4.034;2023-01-08T03:45:09;10.50;99.90
52267;DHT22;38223;50.940;4.034;2023-01-08T03:47:41;10.50;99.90
52267;DHT22;38223;50.940;4.034;2023-01-08T03:50:16;10.50;99.90
52267;DHT22;38223;50.940;4.034;2023-01-08T03:52:52;10.60;99.90
52267;DHT22;38223;50.940;4.034;2023-01-08T03:55:20;10.60;99.90
52267;DHT22;38223;50.940;4.034;2023-01-08T03:57:49;10.60;99.90
52267;DHT22;38223;50.940;4.034;2023-01-08T04:00:25;10.60;99.90
52267;DHT22;38223;50.940;4.034;2023-01-08T04:02:58;10.50;99.90
52267;DHT22;38223;50.940;4.034;2023-01-08T04:05:31;10.50;99.90
52267;DHT22;38223;50.940;4.034;2023-01-08T04:08:02;10.40;99.90
52267;DHT22;38223;50.940;4.034;2023-01-08T04:10:33;10.20;99.90
52267;DHT22;38223;50.940;4.034;2023-01-08T04:13:06;10.20;99.90
52267;DHT22;38223;50.940;4.034;2023-01-08T04:15:41;10.10;99.90
52267;DHT22;38223;50.940;4.034;2023-01-08T04:18:09;10.20;99.90
52267;DHT22;38223;50.940;4.034;2023-01-08T04:20:45;10.10;99.90
52267;DHT22;38223;50.940;4.034;2023-01-08T04:23:17;10.00;99.90
52267;DHT22;38223;50.940;4.034;2023-01-08T04:25:49;10.00;99.90
52267;DHT22;38223;50.940;4.034;2023-01-08T04:28:23;10.00;99.90
52267;DHT22;38223;50.940;4.034;2023-01-08T04:30:55;9.90;99.90
52267;DHT22;38223;50.940;4.034;2023-01-08T04:33:30;9.90;99.90
52267;DHT22;38223;50.940;4.034;2023-01-08T04:36:03;9.80;99.90
52267;DHT22;38223;50.940;4.034;2023-01-08T04:38:38;9.80;99.90
52267;DHT22;38223;50.940;4.034;2023-01-08T04:41:10;9.70;99.90
52267;DHT22;38223;50.940;4.034;2023-01-08T04:43:42;9.60;99.90
52267;DHT22;38223;50.940;4.034;2023-01-08T04:46:17;9.70;99.90
52267;DHT22;38223;50.940;4.034;2023-01-08T04:48:46;9.60;99.90
52267;DHT22;38223;50.940;4.034;2023-01-08T04:51:18;9.60;99.90
52267;DHT22;38223;50.940;4.034;2023-01-08T04:53:52;9.50;99.90
52267;DHT22;38223;50.940;4.034;2023-01-08T04:56:24;9.50;99.90
52267;DHT22;38223;50.940;4.034;2023-01-08T04:58:57;9.50;99.90
52267;DHT22;38223;50.940;4.034;2023-01-08T05:01:28;9.50;99.90
52267;DHT22;38223;50.940;4.034;2023-01-08T05:04:01;9.50;99.90
52267;DHT22;38223;50.940;4.034;2023-01-08T05:06:40;9.40;99.90
52267;DHT22;38223;50.940;4.034;2023-01-08T05:09:08;9.40;99.90
52267;DHT22;38223;50.940;4.034;2023-01-08T05:11:39;9.40;99.90
52267;DHT22;38223;50.940;4.034;2023-01-08T05:14:12;9.20;99.90
52267;DHT22;38223;50.940;4.034;2023-01-08T05:16:47;9.20;99.90
52267;DHT22;38223;50.940;4.034;2023-01-08T05:19:20;9.20;99.90
52267;DHT22;38223;50.940;4.034;2023-01-08T05:21:53;9.20;99.90
52267;DHT22;38223;50.940;4.034;2023-01-08T05:24:23;9.20;99.90
52267;DHT22;38223;50.940;4.034;2023-01-08T05:26:53;9.20;99.90
52267;DHT22;38223;50.940;4.034;2023-01-08T05:29:25;9.20;99.90
52267;DHT22;38223;50.940;4.034;2023-01-08T05:31:57;9.20;99.90
52267;DHT22;38223;50.940;4.034;2023-01-08T05:34:34;9.20;99.90
52267;DHT22;38223;50.940;4.034;2023-01-08T05:37:09;9.20;99.90
52267;DHT22;38223;50.940;4.034;2023-01-08T05:39:44;9.10;99.90
52267;DHT22;38223;50.940;4.034;2023-01-08T05:42:16;9.10;99.90
52267;DHT22;38223;50.940;4.034;2023-01-08T05:44:47;9.10;99.90
52267;DHT22;38223;50.940;4.034;2023-01-08T05:47:36;9.00;99.90
52267;DHT22;38223;50.940;4.034;2023-01-08T05:50:09;9.00;99.90
52267;DHT22;38223;50.940;4.034;2023-01-08T05:52:40;9.00;99.90
52267;DHT22;38223;50.940;4.034;2023-01-08T05:55:08;9.00;99.90
52267;DHT22;38223;50.940;4.034;2023-01-08T05:57:45;9.10;99.90
52267;DHT22;38223;50.940;4.034;2023-01-08T06:00:15;9.00;99.90
52267;DHT22;38223;50.940;4.034;2023-01-08T06:02:49;9.10;99.90
52267;DHT22;38223;50.940;4.034;2023-01-08T06:05:22;9.10;99.90
52267;DHT22;38223;50.940;4.034;2023-01-08T06:07:56;9.10;99.90
52267;DHT22;38223;50.940;4.034;2023-01-08T06:10:26;9.00;99.90
52267;DHT22;38223;50.940;4.034;2023-01-08T06:12:58;9.00;99.90
52267;DHT22;38223;50.940;4.034;2023-01-08T06:15:31;9.10;99.90
52267;DHT22;38223;50.940;4.034;2023-01-08T06:18:08;9.10;99.90
52267;DHT22;38223;50.940;4.034;2023-01-08T06:20:40;9.20;99.90
52267;DHT22;38223;50.940;4.034;2023-01-08T06:23:15;9.20;99.90
52267;DHT22;38223;50.940;4.034;2023-01-08T06:25:50;9.10;99.90
52267;DHT22;38223;50.940;4.034;2023-01-08T06:28:19;9.10;99.90
52267;DHT22;38223;50.940;4.034;2023-01-08T06:30:52;9.10;99.90
52267;DHT22;38223;50.940;4.034;2023-01-08T06:33:23;9.10;99.90
52267;DHT22;38223;50.940;4.034;2023-01-08T06:35:59;9.20;99.90
52267;DHT22;38223;50.940;4.034;2023-01-08T06:38:29;9.30;99.90
52267;DHT22;38223;50.940;4.034;2023-01-08T06:41:04;9.20;99.90
52267;DHT22;38223;50.940;4.034;2023-01-08T06:43:35;9.20;99.90
52267;DHT22;38223;50.940;4.034;2023-01-08T06:46:11;9.20;99.90
52267;DHT22;38223;50.940;4.034;2023-01-08T06:48:41;9.30;99.90
52267;DHT22;38223;50.940;4.034;2023-01-08T06:51:17;9.30;99.90
52267;DHT22;38223;50.940;4.034;2023-01-08T06:53:51;9.20;99.90
52267;DHT22;38223;50.940;4.034;2023-01-08T06:56:26;9.20;99.90
52267;DHT22;38223;50.940;4.034;2023-01-08T06:58:56;9.20;99.90
52267;DHT22;38223;50.940;4.034;2023-01-08T07:01:27;9.20;99.90
52267;DHT22;38223;50.940;4.034;2023-01-08T07:04:01;9.10;99.90
52267;DHT22;38223;50.940;4.034;2023-01-08T07:06:30;9.20;99.90
52267;DHT22;38223;50.940;4.034;2023-01-08T07:09:05;9.40;99.90
52267;DHT22;38223;50.940;4.034;2023-01-08T07:11:36;9.30;99.90
52267;DHT22;38223;50.940;4.034;2023-01-08T07:14:06;9.20;99.90
52267;DHT22;38223;50.940;4.034;2023-01-08T07:16:46;9.20;99.90
52267;DHT22;38223;50.940;4.034;2023-01-08T07:19:14;9.30;99.90
52267;DHT22;38223;50.940;4.034;2023-01-08T07:21:47;9.30;99.90
52267;DHT22;38223;50.940;4.034;2023-01-08T07:24:20;9.20;99.90
52267;DHT22;38223;50.940;4.034;2023-01-08T07:26:49;9.20;99.90
52267;DHT22;38223;50.940;4.034;2023-01-08T07:29:26;9.20;99.90
52267;DHT22;38223;50.940;4.034;2023-01-08T07:32:01;9.30;99.90
52267;DHT22;38223;50.940;4.034;2023-01-08T07:34:31;9.30;99.90
52267;DHT22;38223;50.940;4.034;2023-01-08T07:37:01;9.30;99.90
52267;DHT22;38223;50.940;4.034;2023-01-08T07:39:34;9.30;99.90
52267;DHT22;38223;50.940;4.034;2023-01-08T07:42:06;9.30;99.90
52267;DHT22;38223;50.940;4.034;2023-01-08T07:44:42;9.40;99.90
52267;DHT22;38223;50.940;4.034;2023-01-08T07:47:32;9.40;99.90
52267;DHT22;38223;50.940;4.034;2023-01-08T07:50:04;9.40;99.90
52267;DHT22;38223;50.940;4.034;2023-01-08T07:52:36;9.40;99.90
52267;DHT22;38223;50.940;4.034;2023-01-08T07:55:11;9.30;99.90
52267;DHT22;38223;50.940;4.034;2023-01-08T07:57:41;9.30;99.90
52267;DHT22;38223;50.940;4.034;2023-01-08T08:00:12;9.30;99.90
52267;DHT22;38223;50.940;4.034;2023-01-08T08:02:44;9.30;99.90
52267;DHT22;38223;50.940;4.034;2023-01-08T08:05:19;9.30;99.90
52267;DHT22;38223;50.940;4.034;2023-01-08T08:07:50;9.30;99.90
52267;DHT22;38223;50.940;4.034;2023-01-08T08:10:22;9.30;99.90
52267;DHT22;38223;50.940;4.034;2023-01-08T08:12:52;9.30;99.90
52267;DHT22;38223;50.940;4.034;2023-01-08T08:15:20;9.30;99.90
52267;DHT22;38223;50.940;4.034;2023-01-08T08:17:50;9.30;99.90
52267;DHT22;38223;50.940;4.034;2023-01-08T08:20:24;9.40;99.90
52267;DHT22;38223;50.940;4.034;2023-01-08T08:23:05;9.20;99.90
52267;DHT22;38223;50.940;4.034;2023-01-08T08:25:44;9.20;99.90
52267;DHT22;38223;50.940;4.034;2023-01-08T08:28:13;9.20;99.90
52267;DHT22;38223;50.940;4.034;2023-01-08T08:30:44;9.20;99.90
52267;DHT22;38223;50.940;4.034;2023-01-08T08:33:18;9.20;99.90
52267;DHT22;38223;50.940;4.034;2023-01-08T08:35:50;9.20;99.90
52267;DHT22;38223;50.940;4.034;2023-01-08T08:38:23;9.20;99.90
52267;DHT22;38223;50.940;4.034;2023-01-08T08:40:54;9.30;99.90
52267;DHT22;38223;50.940;4.034;2023-01-08T08:43:25;9.30;99.90
52267;DHT22;38223;50.940;4.034;2023-01-08T08:45:56;9.30;99.90
52267;DHT22;38223;50.940;4.034;2023-01-08T08:48:32;9.40;99.90
52267;DHT22;38223;50.940;4.034;2023-01-08T08:51:00;9.40;99.90
52267;DHT22;38223;50.940;4.034;2023-01-08T08:53:33;9.40;99.90
52267;DHT22;38223;50.940;4.034;2023-01-08T08:56:11;9.40;99.90
52267;DHT22;38223;50.940;4.034;2023-01-08T08:58:41;9.40;99.90
52267;DHT22;38223;50.940;4.034;2023-01-08T09:01:14;9.40;99.90
52267;DHT22;38223;50.940;4.034;2023-01-08T09:03:50;9.30;99.90
52267;DHT22;38223;50.940;4.034;2023-01-08T09:06:24;9.40;99.90
52267;DHT22;38223;50.940;4.034;2023-01-08T09:08:57;9.40;99.90
52267;DHT22;38223;50.940;4.034;2023-01-08T09:11:29;9.40;99.90
52267;DHT22;38223;50.940;4.034;2023-01-08T09:14:00;9.30;99.90
52267;DHT22;38223;50.940;4.034;2023-01-08T09:16:31;9.30;99.90
52267;DHT22;38223;50.940;4.034;2023-01-08T09:19:07;9.30;99.90
52267;DHT22;38223;50.940;4.034;2023-01-08T09:21:37;9.30;99.90
52267;DHT22;38223;50.940;4.034;2023-01-08T09:24:13;9.40;99.90
52267;DHT22;38223;50.940;4.034;2023-01-08T09:26:45;9.40;99.90
52267;DHT22;38223;50.940;4.034;2023-01-08T09:29:20;9.50;99.90
52267;DHT22;38223;50.940;4.034;2023-01-08T09:31:52;9.50;99.90
52267;DHT22;38223;50.940;4.034;2023-01-08T09:34:24;9.50;99.90
52267;DHT22;38223;50.940;4.034;2023-01-08T09:36:54;9.50;99.90
52267;DHT22;38223;50.940;4.034;2023-01-08T09:39:25;9.60;99.90
52267;DHT22;38223;50.940;4.034;2023-01-08T09:41:54;9.70;99.90
52267;DHT22;38223;50.940;4.034;2023-01-08T09:44:28;9.80;99.90
52267;DHT22;38223;50.940;4.034;2023-01-08T09:47:00;9.90;99.90
52267;DHT22;38223;50.940;4.034;2023-01-08T09:49:38;9.90;99.90
52267;DHT22;38223;50.940;4.034;2023-01-08T09:52:11;9.80;99.90
52267;DHT22;38223;50.940;4.034;2023-01-08T09:54:43;9.80;99.90
52267;DHT22;38223;50.940;4.034;2023-01-08T09:57:19;9.80;99.90
52267;DHT22;38223;50.940;4.034;2023-01-08T09:59:50;9.80;99.90
52267;DHT22;38223;50.940;4.034;2023-01-08T10:02:23;9.90;99.90
52267;DHT22;38223;50.940;4.034;2023-01-08T10:05:01;9.90;99.90
52267;DHT22;38223;50.940;4.034;2023-01-08T10:07:37;9.90;99.90
52267;DHT22;38223;50.940;4.034;2023-01-08T10:10:25;9.80;99.90
52267;DHT22;38223;50.940;4.034;2023-01-08T10:12:59;9.90;99.90
52267;DHT22;38223;50.940;4.034;2023-01-08T10:15:31;9.90;99.90
52267;DHT22;38223;50.940;4.034;2023-01-08T10:18:11;9.90;99.90
52267;DHT22;38223;50.940;4.034;2023-01-08T10:20:42;10.00;99.90
52267;DHT22;38223;50.940;4.034;2023-01-08T10:23:17;10.10;99.90
52267;DHT22;38223;50.940;4.034;2023-01-08T10:25:59;10.20;99.90
52267;DHT22;38223;50.940;4.034;2023-01-08T10:28:35;10.10;99.90
52267;DHT22;38223;50.940;4.034;2023-01-08T10:31:23;10.10;99.90
52267;DHT22;38223;50.940;4.034;2023-01-08T10:33:56;10.00;99.90
52267;DHT22;38223;50.940;4.034;2023-01-08T10:36:25;10.10;99.90
52267;DHT22;38223;50.940;4.034;2023-01-08T10:39:01;10.30;99.90
52267;DHT22;38223;50.940;4.034;2023-01-08T10:41:37;10.20;99.90
52267;DHT22;38223;50.940;4.034;2023-01-08T10:44:13;10.20;99.90
52267;DHT22;38223;50.940;4.034;2023-01-08T10:46:46;10.30;99.90
52267;DHT22;38223;50.940;4.034;2023-01-08T10:49:28;10.20;99.90
52267;DHT22;38223;50.940;4.034;2023-01-08T10:52:00;10.20;99.90
52267;DHT22;38223;50.940;4.034;2023-01-08T10:54:36;10.40;99.90
52267;DHT22;38223;50.940;4.034;2023-01-08T10:57:28;10.40;99.90
52267;DHT22;38223;50.940;4.034;2023-01-08T10:59:58;10.40;99.90
52267;DHT22;38223;50.940;4.034;2023-01-08T11:02:35;10.40;99.90
52267;DHT22;38223;50.940;4.034;2023-01-08T11:07:57;10.30;99.90
52267;DHT22;38223;50.940;4.034;2023-01-08T11:10:26;10.40;99.90
52267;DHT22;38223;50.940;4.034;2023-01-08T11:13:02;10.40;99.90
52267;DHT22;38223;50.940;4.034;2023-01-08T11:15:41;10.60;99.90
52267;DHT22;38223;50.940;4.034;2023-01-08T11:18:22;10.70;99.90
52267;DHT22;38223;50.940;4.034;2023-01-08T11:21:05;10.60;99.90
52267;DHT22;38223;50.940;4.034;2023-01-08T11:23:28;10.50;99.90
52267;DHT22;38223;50.940;4.034;2023-01-08T11:26:13;10.50;99.90
52267;DHT22;38223;50.940;4.034;2023-01-08T11:28:58;10.40;99.90
52267;DHT22;38223;50.940;4.034;2023-01-08T11:34:30;10.50;99.90
52267;DHT22;38223;50.940;4.034;2023-01-08T11:36:58;10.50;99.90
52267;DHT22;38223;50.940;4.034;2023-01-08T11:39:23;10.60;99.90
52267;DHT22;38223;50.940;4.034;2023-01-08T11:53:37;10.70;99.90
52267;DHT22;38223;50.940;4.034;2023-01-08T12:01:59;10.70;99.90
52267;DHT22;38223;50.940;4.034;2023-01-08T12:07:35;10.70;99.90
52267;DHT22;38223;50.940;4.034;2023-01-08T12:10:23;10.70;99.90
52267;DHT22;38223;50.940;4.034;2023-01-08T12:13:35;10.80;99.90
52267;DHT22;38223;50.940;4.034;2023-01-08T12:21:40;10.60;99.90
52267;DHT22;38223;50.940;4.034;2023-01-08T12:24:10;10.70;99.90
52267;DHT22;38223;50.940;4.034;2023-01-08T12:26:56;10.70;99.90
52267;DHT22;38223;50.940;4.034;2023-01-08T12:29:46;10.80;99.90
52267;DHT22;38223;50.940;4.034;2023-01-08T12:32:21;10.90;99.90
52267;DHT22;38223;50.940;4.034;2023-01-08T12:34:57;11.00;99.90
52267;DHT22;38223;50.940;4.034;2023-01-08T12:37:33;11.00;99.90
52267;DHT22;38223;50.940;4.034;2023-01-08T12:40:15;11.10;99.90
52267;DHT22;38223;50.940;4.034;2023-01-08T12:42:46;11.00;99.90
52267;DHT22;38223;50.940;4.034;2023-01-08T12:45:28;10.90;99.90
52267;DHT22;38223;50.940;4.034;2023-01-08T12:48:13;10.90;99.90
52267;DHT22;38223;50.940;4.034;2023-01-08T12:56:59;10.90;99.90
52267;DHT22;38223;50.940;4.034;2023-01-08T12:59:45;10.90;99.90
52267;DHT22;38223;50.940;4.034;2023-01-08T13:10:52;11.10;99.90
52267;DHT22;38223;50.940;4.034;2023-01-08T13:13:36;11.10;99.90
52267;DHT22;38223;50.940;4.034;2023-01-08T13:16:19;11.20;99.90
52267;DHT22;38223;50.940;4.034;2023-01-08T13:18:50;11.20;99.90
52267;DHT22;38223;50.940;4.034;2023-01-08T13:21:15;11.30;99.90
52267;DHT22;38223;50.940;4.034;2023-01-08T13:23:43;11.40;99.90
52267;DHT22;38223;50.940;4.034;2023-01-08T13:26:14;11.30;99.90
52267;DHT22;38223;50.940;4.034;2023-01-08T13:28:49;11.40;99.90
52267;DHT22;38223;50.940;4.034;2023-01-08T13:31:26;11.50;99.90
52267;DHT22;38223;50.940;4.034;2023-01-08T13:33:59;11.40;99.90
52267;DHT22;38223;50.940;4.034;2023-01-08T13:36:33;11.40;99.90
52267;DHT22;38223;50.940;4.034;2023-01-08T13:41:56;11.40;99.90
52267;DHT22;38223;50.940;4.034;2023-01-08T13:44:37;11.40;99.90
52267;DHT22;38223;50.940;4.034;2023-01-08T13:47:19;11.30;99.90
52267;DHT22;38223;50.940;4.034;2023-01-08T13:49:49;11.30;99.90
52267;DHT22;38223;50.940;4.034;2023-01-08T13:52:42;11.40;99.90
52267;DHT22;38223;50.940;4.034;2023-01-08T13:58:03;11.30;99.90
52267;DHT22;38223;50.940;4.034;2023-01-08T14:00:47;11.40;99.90
52267;DHT22;38223;50.940;4.034;2023-01-08T14:03:33;11.40;99.90
52267;DHT22;38223;50.940;4.034;2023-01-08T14:06:24;11.40;99.90
52267;DHT22;38223;50.940;4.034;2023-01-08T14:09:03;11.60;99.90
52267;DHT22;38223;50.940;4.034;2023-01-08T14:11:42;11.60;99.90
52267;DHT22;38223;50.940;4.034;2023-01-08T14:14:19;11.50;99.90
52267;DHT22;38223;50.940;4.034;2023-01-08T14:16:55;11.40;99.90
52267;DHT22;38223;50.940;4.034;2023-01-08T14:19:26;11.30;99.90
52267;DHT22;38223;50.940;4.034;2023-01-08T14:22:01;11.40;99.90
52267;DHT22;38223;50.940;4.034;2023-01-08T14:24:36;11.50;99.90
52267;DHT22;38223;50.940;4.034;2023-01-08T14:27:23;11.50;99.90
52267;DHT22;38223;50.940;4.034;2023-01-08T14:29:48;11.40;99.90
52267;DHT22;38223;50.940;4.034;2023-01-08T14:32:23;11.20;99.90
52267;DHT22;38223;50.940;4.034;2023-01-08T14:34:57;11.30;99.90
52267;DHT22;38223;50.940;4.034;2023-01-08T14:37:27;11.20;99.90
52267;DHT22;38223;50.940;4.034;2023-01-08T14:40:03;11.20;99.90
52267;DHT22;38223;50.940;4.034;2023-01-08T14:42:35;11.20;99.90
52267;DHT22;38223;50.940;4.034;2023-01-08T14:45:28;11.20;99.90
52267;DHT22;38223;50.940;4.034;2023-01-08T14:48:07;11.20;99.90
52267;DHT22;38223;50.940;4.034;2023-01-08T14:50:36;11.20;99.90
52267;DHT22;38223;50.940;4.034;2023-01-08T14:53:23;11.10;99.90
52267;DHT22;38223;50.940;4.034;2023-01-08T14:55:56;11.10;99.90
52267;DHT22;38223;50.940;4.034;2023-01-08T14:58:33;11.10;99.90
52267;DHT22;38223;50.940;4.034;2023-01-08T15:01:05;11.20;99.90
52267;DHT22;38223;50.940;4.034;2023-01-08T15:03:37;11.10;99.90
52267;DHT22;38223;50.940;4.034;2023-01-08T15:06:24;11.10;99.90
52267;DHT22;38223;50.940;4.034;2023-01-08T15:08:46;11.20;99.90
52267;DHT22;38223;50.940;4.034;2023-01-08T15:11:29;11.20;99.90
52267;DHT22;38223;50.940;4.034;2023-01-08T15:14:00;11.20;99.90
52267;DHT22;38223;50.940;4.034;2023-01-08T15:16:36;11.20;99.90
52267;DHT22;38223;50.940;4.034;2023-01-08T15:19:16;11.20;99.90
52267;DHT22;38223;50.940;4.034;2023-01-08T15:21:52;11.20;99.90
52267;DHT22;38223;50.940;4.034;2023-01-08T15:24:32;11.10;99.90
52267;DHT22;38223;50.940;4.034;2023-01-08T15:27:07;11.10;99.90
52267;DHT22;38223;50.940;4.034;2023-01-08T15:29:48;11.10;99.90
52267;DHT22;38223;50.940;4.034;2023-01-08T15:32:22;11.10;99.90
52267;DHT22;38223;50.940;4.034;2023-01-08T15:34:53;11.20;99.90
52267;DHT22;38223;50.940;4.034;2023-01-08T15:37:26;11.10;99.90
52267;DHT22;38223;50.940;4.034;2023-01-08T15:39:57;11.10;99.90
52267;DHT22;38223;50.940;4.034;2023-01-08T15:42:30;11.10;99.90
52267;DHT22;38223;50.940;4.034;2023-01-08T15:45:29;11.10;99.90
52267;DHT22;38223;50.940;4.034;2023-01-08T15:48:02;11.00;99.90
52267;DHT22;38223;50.940;4.034;2023-01-08T15:50:35;10.90;99.90
52267;DHT22;38223;50.940;4.034;2023-01-08T15:53:17;11.00;99.90
52267;DHT22;38223;50.940;4.034;2023-01-08T15:55:52;11.10;99.90
52267;DHT22;38223;50.940;4.034;2023-01-08T15:58:27;11.10;99.90
52267;DHT22;38223;50.940;4.034;2023-01-08T16:00:57;11.00;99.90
52267;DHT22;38223;50.940;4.034;2023-01-08T16:03:26;11.10;99.90
52267;DHT22;38223;50.940;4.034;2023-01-08T16:05:58;11.10;99.90
52267;DHT22;38223;50.940;4.034;2023-01-08T16:08:28;11.00;99.90
52267;DHT22;38223;50.940;4.034;2023-01-08T16:11:00;11.00;99.90
52267;DHT22;38223;50.940;4.034;2023-01-08T16:13:33;11.00;99.90
52267;DHT22;38223;50.940;4.034;2023-01-08T16:16:13;11.00;99.90
52267;DHT22;38223;50.940;4.034;2023-01-08T16:18:47;11.00;99.90
52267;DHT22;38223;50.940;4.034;2023-01-08T16:21:22;11.00;99.90
52267;DHT22;38223;50.940;4.034;2023-01-08T16:23:58;10.90;99.90
52267;DHT22;38223;50.940;4.034;2023-01-08T16:26:29;10.80;99.90
52267;DHT22;38223;50.940;4.034;2023-01-08T16:28:59;10.80;99.90
52267;DHT22;38223;50.940;4.034;2023-01-08T16:31:27;10.80;99.90
52267;DHT22;38223;50.940;4.034;2023-01-08T16:34:01;10.90;99.90
52267;DHT22;38223;50.940;4.034;2023-01-08T16:36:39;10.90;99.90
52267;DHT22;38223;50.940;4.034;2023-01-08T16:39:11;10.80;99.90
52267;DHT22;38223;50.940;4.034;2023-01-08T16:41:47;10.80;99.90
52267;DHT22;38223;50.940;4.034;2023-01-08T16:44:23;10.80;99.90
52267;DHT22;38223;50.940;4.034;2023-01-08T16:52:35;10.70;99.90
52267;DHT22;38223;50.940;4.034;2023-01-08T16:55:05;10.70;99.90
52267;DHT22;38223;50.940;4.034;2023-01-08T16:57:35;10.70;99.90
52267;DHT22;38223;50.940;4.034;2023-01-08T17:00:11;10.60;99.90
52267;DHT22;38223;50.940;4.034;2023-01-08T17:02:56;10.60;99.90
52267;DHT22;38223;50.940;4.034;2023-01-08T17:05:26;10.60;99.90
52267;DHT22;38223;50.940;4.034;2023-01-08T17:07:58;10.60;99.90
52267;DHT22;38223;50.940;4.034;2023-01-08T17:10:48;10.60;99.90
52267;DHT22;38223;50.940;4.034;2023-01-08T17:13:17;10.70;99.90
52267;DHT22;38223;50.940;4.034;2023-01-08T17:15:52;10.70;99.90
52267;DHT22;38223;50.940;4.034;2023-01-08T17:18:22;10.70;99.90
52267;DHT22;38223;50.940;4.034;2023-01-08T17:20:58;10.70;99.90
52267;DHT22;38223;50.940;4.034;2023-01-08T17:23:30;10.70;99.90